sensor_id;sensor_type;location;lat;lon;timestamp;temperature;humidity
46123;DHT22;31856;-35.404;149.120;2023-02-26T07:03:26;28.30;41.90
46123;DHT22;31856;-35.404;149.120;2023-02-26T07:15:07;28.10;42.50
46123;DHT22;31856;-35.404;149.120;2023-02-26T07:17:36;28.00;42.30
46123;DHT22;31856;-35.404;149.120;2023-02-26T07:20:06;28.00;43.00
46123;DHT22;31856;-35.404;149.120;2023-02-26T07:22:37;28.10;43.00
46123;DHT22;31856;-35.404;149.120;2023-02-26T07:25:07;28.10;43.00
46123;DHT22;31856;-35.404;149.120;2023-02-26T07:27:36;27.90;43.40
46123;DHT22;31856;-35.404;149.120;2023-02-26T07:30:09;27.90;43.00
46123;DHT22;31856;-35.404;149.120;2023-02-26T07:32:38;27.80;43.30
46123;DHT22;31856;-35.404;149.120;2023-02-26T07:35:09;27.80;43.60
46123;DHT22;31856;-35.404;149.120;2023-02-26T07:37:38;27.70;43.30
46123;DHT22;31856;-35.404;149.120;2023-02-26T07:40:08;27.60;43.80
46123;DHT22;31856;-35.404;149.120;2023-02-26T07:42:38;27.60;44.00
46123;DHT22;31856;-35.404;149.120;2023-02-26T07:45:08;27.50;43.80
46123;DHT22;31856;-35.404;149.120;2023-02-26T07:47:37;27.40;44.00
46123;DHT22;31856;-35.404;149.120;2023-02-26T07:50:07;27.30;44.10
46123;DHT22;31856;-35.404;149.120;2023-02-26T07:52:38;27.30;44.40
46123;DHT22;31856;-35.404;149.120;2023-02-26T07:55:08;27.30;44.80
46123;DHT22;31856;-35.404;149.120;2023-02-26T07:57:38;27.20;44.70
46123;DHT22;31856;-35.404;149.120;2023-02-26T08:00:08;27.10;44.70
46123;DHT22;31856;-35.404;149.120;2023-02-26T08:02:45;27.00;45.10
46123;DHT22;31856;-35.404;149.120;2023-02-26T08:05:15;26.90;45.40
46123;DHT22;31856;-35.404;149.120;2023-02-26T08:07:44;26.80;46.00
46123;DHT22;31856;-35.404;149.120;2023-02-26T08:10:14;26.50;46.10
46123;DHT22;31856;-35.404;149.120;2023-02-26T08:12:44;26.30;46.70
46123;DHT22;31856;-35.404;149.120;2023-02-26T08:27:24;25.70;48.20
46123;DHT22;31856;-35.404;149.120;2023-02-26T08:29:55;25.70;48.30
46123;DHT22;31856;-35.404;149.120;2023-02-26T08:32:24;25.60;48.50
46123;DHT22;31856;-35.404;149.120;2023-02-26T08:34:55;25.60;48.80
46123;DHT22;31856;-35.404;149.120;2023-02-26T08:37:25;25.50;49.00
46123;DHT22;31856;-35.404;149.120;2023-02-26T08:39:54;25.50;48.70
46123;DHT22;31856;-35.404;149.120;2023-02-26T08:42:23;25.50;48.80
46123;DHT22;31856;-35.404;149.120;2023-02-26T08:44:53;25.40;49.20
46123;DHT22;31856;-35.404;149.120;2023-02-26T08:47:22;25.30;49.40
46123;DHT22;31856;-35.404;149.120;2023-02-26T08:49:55;25.30;49.60
46123;DHT22;31856;-35.404;149.120;2023-02-26T08:52:25;25.30;49.50
46123;DHT22;31856;-35.404;149.120;2023-02-26T08:54:54;25.20;49.90
46123;DHT22;31856;-35.404;149.120;2023-02-26T08:57:24;25.10;50.60
46123;DHT22;31856;-35.404;149.120;2023-02-26T08:59:54;25.00;50.50
46123;DHT22;31856;-35.404;149.120;2023-02-26T09:02:25;25.00;50.60
46123;DHT22;31856;-35.404;149.120;2023-02-26T09:04:54;24.90;50.70
46123;DHT22;31856;-35.404;149.120;2023-02-26T09:07:23;24.90;51.40
46123;DHT22;31856;-35.404;149.120;2023-02-26T09:09:53;24.80;51.50
46123;DHT22;31856;-35.404;149.120;2023-02-26T09:12:22;24.70;51.90
46123;DHT22;31856;-35.404;149.120;2023-02-26T09:14:52;24.70;51.90
46123;DHT22;31856;-35.404;149.120;2023-02-26T09:17:21;24.60;52.00
46123;DHT22;31856;-35.404;149.120;2023-02-26T09:19:51;24.60;53.10
46123;DHT22;31856;-35.404;149.120;2023-02-26T09:22:21;24.50;52.80
46123;DHT22;31856;-35.404;149.120;2023-02-26T10:06:26;23.40;57.10
46123;DHT22;31856;-35.404;149.120;2023-02-26T10:15:07;23.20;57.20
46123;DHT22;31856;-35.404;149.120;2023-02-26T10:20:19;22.90;58.30
46123;DHT22;31856;-35.404;149.120;2023-02-26T10:25:24;22.80;59.20
46123;DHT22;31856;-35.404;149.120;2023-02-26T10:28:00;22.80;58.80
46123;DHT22;31856;-35.404;149.120;2023-02-26T10:30:35;22.80;59.30
46123;DHT22;31856;-35.404;149.120;2023-02-26T10:35:42;22.50;59.00
46123;DHT22;31856;-35.404;149.120;2023-02-26T10:38:15;22.60;59.40
46123;DHT22;31856;-35.404;149.120;2023-02-26T10:40:49;22.50;59.40
46123;DHT22;31856;-35.404;149.120;2023-02-26T10:46:01;22.50;59.30
46123;DHT22;31856;-35.404;149.120;2023-02-26T10:51:27;22.40;59.80
46123;DHT22;31856;-35.404;149.120;2023-02-26T10:54:05;22.40;59.90
46123;DHT22;31856;-35.404;149.120;2023-02-26T10:56:39;22.30;60.10
46123;DHT22;31856;-35.404;149.120;2023-02-26T10:59:08;22.30;60.40
46123;DHT22;31856;-35.404;149.120;2023-02-26T11:01:37;22.30;60.30
46123;DHT22;31856;-35.404;149.120;2023-02-26T11:04:20;22.20;60.30
46123;DHT22;31856;-35.404;149.120;2023-02-26T11:06:58;22.20;60.50
46123;DHT22;31856;-35.404;149.120;2023-02-26T11:09:36;22.20;60.40
46123;DHT22;31856;-35.404;149.120;2023-02-26T11:14:43;22.20;60.20
46123;DHT22;31856;-35.404;149.120;2023-02-26T11:17:15;22.20;60.00
46123;DHT22;31856;-35.404;149.120;2023-02-26T11:19:51;22.20;60.10
46123;DHT22;31856;-35.404;149.120;2023-02-26T11:22:21;22.20;60.40
46123;DHT22;31856;-35.404;149.120;2023-02-26T11:24:54;22.10;60.60
46123;DHT22;31856;-35.404;149.120;2023-02-26T11:27:29;22.10;60.90
46123;DHT22;31856;-35.404;149.120;2023-02-26T11:29:59;22.00;61.00
46123;DHT22;31856;-35.404;149.120;2023-02-26T11:32:33;22.00;61.10
46123;DHT22;31856;-35.404;149.120;2023-02-26T11:35:06;21.90;60.80
46123;DHT22;31856;-35.404;149.120;2023-02-26T11:37:40;21.90;60.50
46123;DHT22;31856;-35.404;149.120;2023-02-26T11:40:15;21.90;60.10
46123;DHT22;31856;-35.404;149.120;2023-02-26T11:42:55;21.90;59.80
46123;DHT22;31856;-35.404;149.120;2023-02-26T11:45:26;21.90;59.90
46123;DHT22;31856;-35.404;149.120;2023-02-26T11:47:57;21.90;60.00
46123;DHT22;31856;-35.404;149.120;2023-02-26T11:50:28;21.90;60.00
46123;DHT22;31856;-35.404;149.120;2023-02-26T11:53:04;21.80;59.90
46123;DHT22;31856;-35.404;149.120;2023-02-26T11:55:36;21.80;60.10
46123;DHT22;31856;-35.404;149.120;2023-02-26T11:58:17;21.80;60.50
46123;DHT22;31856;-35.404;149.120;2023-02-26T12:00:47;21.80;60.30
46123;DHT22;31856;-35.404;149.120;2023-02-26T12:03:22;21.70;60.10
46123;DHT22;31856;-35.404;149.120;2023-02-26T12:05:52;21.70;60.40
46123;DHT22;31856;-35.404;149.120;2023-02-26T12:08:26;21.60;60.30
46123;DHT22;31856;-35.404;149.120;2023-02-26T12:16:06;21.60;59.70
46123;DHT22;31856;-35.404;149.120;2023-02-26T12:18:43;21.60;60.20
46123;DHT22;31856;-35.404;149.120;2023-02-26T12:40:08;21.20;61.50
46123;DHT22;31856;-35.404;149.120;2023-02-26T12:55:42;20.90;62.40
46123;DHT22;31856;-35.404;149.120;2023-02-26T12:58:18;20.90;62.40
46123;DHT22;31856;-35.404;149.120;2023-02-26T13:14:39;20.60;62.60
46123;DHT22;31856;-35.404;149.120;2023-02-26T13:17:14;20.60;62.80
46123;DHT22;31856;-35.404;149.120;2023-02-26T13:19:51;20.60;62.80
46123;DHT22;31856;-35.404;149.120;2023-02-26T13:22:28;20.50;62.90
46123;DHT22;31856;-35.404;149.120;2023-02-26T13:25:01;20.50;62.90
46123;DHT22;31856;-35.404;149.120;2023-02-26T13:27:34;20.50;62.70
46123;DHT22;31856;-35.404;149.120;2023-02-26T14:27:36;19.70;64.60
46123;DHT22;31856;-35.404;149.120;2023-02-26T14:35:18;19.60;64.90
46123;DHT22;31856;-35.404;149.120;2023-02-26T14:37:55;19.50;65.40
46123;DHT22;31856;-35.404;149.120;2023-02-26T14:40:26;19.40;65.50
46123;DHT22;31856;-35.404;149.120;2023-02-26T14:42:58;19.40;65.40
46123;DHT22;31856;-35.404;149.120;2023-02-26T14:45:33;19.30;65.90
46123;DHT22;31856;-35.404;149.120;2023-02-26T14:48:10;19.30;66.10
46123;DHT22;31856;-35.404;149.120;2023-02-26T14:56:04;19.10;66.50
46123;DHT22;31856;-35.404;149.120;2023-02-26T14:58:45;19.10;66.90
46123;DHT22;31856;-35.404;149.120;2023-02-26T15:01:27;19.10;66.70
46123;DHT22;31856;-35.404;149.120;2023-02-26T15:04:14;19.00;66.80
46123;DHT22;31856;-35.404;149.120;2023-02-26T15:09:18;18.90;67.00
46123;DHT22;31856;-35.404;149.120;2023-02-26T15:12:11;18.90;67.30
46123;DHT22;31856;-35.404;149.120;2023-02-26T15:14:58;18.80;67.40
46123;DHT22;31856;-35.404;149.120;2023-02-26T15:23:18;18.70;68.30
46123;DHT22;31856;-35.404;149.120;2023-02-26T15:25:50;18.60;68.70
46123;DHT22;31856;-35.404;149.120;2023-02-26T15:30:55;18.50;68.50
46123;DHT22;31856;-35.404;149.120;2023-02-26T15:33:27;18.50;68.30
46123;DHT22;31856;-35.404;149.120;2023-02-26T15:35:57;18.40;69.00
46123;DHT22;31856;-35.404;149.120;2023-02-26T15:38:27;18.40;68.80
46123;DHT22;31856;-35.404;149.120;2023-02-26T15:40:57;18.40;68.70
46123;DHT22;31856;-35.404;149.120;2023-02-26T15:43:29;18.30;69.30
46123;DHT22;31856;-35.404;149.120;2023-02-26T15:45:58;18.20;69.10
46123;DHT22;31856;-35.404;149.120;2023-02-26T15:48:31;18.20;69.20
46123;DHT22;31856;-35.404;149.120;2023-02-26T15:51:03;18.10;69.60
46123;DHT22;31856;-35.404;149.120;2023-02-26T15:53:37;18.10;69.50
46123;DHT22;31856;-35.404;149.120;2023-02-26T15:56:13;18.10;69.70
46123;DHT22;31856;-35.404;149.120;2023-02-26T15:58:54;18.10;69.80
46123;DHT22;31856;-35.404;149.120;2023-02-26T16:01:27;17.90;70.30
46123;DHT22;31856;-35.404;149.120;2023-02-26T16:03:57;17.90;70.40
46123;DHT22;31856;-35.404;149.120;2023-02-26T16:06:28;17.90;70.60
46123;DHT22;31856;-35.404;149.120;2023-02-26T16:14:16;17.80;70.30
46123;DHT22;31856;-35.404;149.120;2023-02-26T16:16:50;17.70;70.40
46123;DHT22;31856;-35.404;149.120;2023-02-26T16:19:22;17.70;70.50
46123;DHT22;31856;-35.404;149.120;2023-02-26T16:21:55;17.70;70.80
46123;DHT22;31856;-35.404;149.120;2023-02-26T16:24:25;17.70;70.70
46123;DHT22;31856;-35.404;149.120;2023-02-26T16:26:59;17.60;71.00
46123;DHT22;31856;-35.404;149.120;2023-02-26T16:29:30;17.50;70.80
46123;DHT22;31856;-35.404;149.120;2023-02-26T16:32:01;17.60;71.00
46123;DHT22;31856;-35.404;149.120;2023-02-26T16:37:11;17.60;71.10
46123;DHT22;31856;-35.404;149.120;2023-02-26T16:39:42;17.50;71.00
46123;DHT22;31856;-35.404;149.120;2023-02-26T16:42:14;17.50;71.10
46123;DHT22;31856;-35.404;149.120;2023-02-26T16:45:14;17.50;71.40
46123;DHT22;31856;-35.404;149.120;2023-02-26T16:47:34;17.40;71.30
46123;DHT22;31856;-35.404;149.120;2023-02-26T16:50:13;17.40;71.70
46123;DHT22;31856;-35.404;149.120;2023-02-26T16:52:45;17.30;71.60
46123;DHT22;31856;-35.404;149.120;2023-02-26T16:55:15;17.30;71.80
46123;DHT22;31856;-35.404;149.120;2023-02-26T16:57:46;17.30;72.30
46123;DHT22;31856;-35.404;149.120;2023-02-26T17:00:17;17.30;71.70
46123;DHT22;31856;-35.404;149.120;2023-02-26T17:03:17;17.30;72.10
46123;DHT22;31856;-35.404;149.120;2023-02-26T17:08:20;17.30;72.10
46123;DHT22;31856;-35.404;149.120;2023-02-26T17:11:05;17.30;72.10
46123;DHT22;31856;-35.404;149.120;2023-02-26T17:16:22;17.30;72.20
46123;DHT22;31856;-35.404;149.120;2023-02-26T17:18:53;17.30;72.20
46123;DHT22;31856;-35.404;149.120;2023-02-26T17:21:22;17.30;72.40
46123;DHT22;31856;-35.404;149.120;2023-02-26T17:23:52;17.40;72.00
46123;DHT22;31856;-35.404;149.120;2023-02-26T17:26:23;17.40;72.40
46123;DHT22;31856;-35.404;149.120;2023-02-26T17:28:53;17.40;72.10
46123;DHT22;31856;-35.404;149.120;2023-02-26T17:31:23;17.40;72.60
46123;DHT22;31856;-35.404;149.120;2023-02-26T17:33:54;17.40;72.20
46123;DHT22;31856;-35.404;149.120;2023-02-26T17:36:23;17.40;72.30
46123;DHT22;31856;-35.404;149.120;2023-02-26T17:38:54;17.40;72.40
46123;DHT22;31856;-35.404;149.120;2023-02-26T17:41:23;17.40;72.50
46123;DHT22;31856;-35.404;149.120;2023-02-26T17:43:55;17.40;72.60
46123;DHT22;31856;-35.404;149.120;2023-02-26T17:46:24;17.40;72.60
46123;DHT22;31856;-35.404;149.120;2023-02-26T17:48:53;17.30;72.90
46123;DHT22;31856;-35.404;149.120;2023-02-26T17:51:23;17.40;72.90
46123;DHT22;31856;-35.404;149.120;2023-02-26T17:53:55;17.40;72.80
46123;DHT22;31856;-35.404;149.120;2023-02-26T17:56:26;17.30;73.30
46123;DHT22;31856;-35.404;149.120;2023-02-26T17:58:56;17.30;73.30
46123;DHT22;31856;-35.404;149.120;2023-02-26T18:01:26;17.30;73.50
46123;DHT22;31856;-35.404;149.120;2023-02-26T18:03:59;17.30;73.30
46123;DHT22;31856;-35.404;149.120;2023-02-26T18:06:32;17.30;74.00
46123;DHT22;31856;-35.404;149.120;2023-02-26T18:09:02;17.30;74.00
46123;DHT22;31856;-35.404;149.120;2023-02-26T18:11:33;17.40;74.20
46123;DHT22;31856;-35.404;149.120;2023-02-26T18:14:03;17.40;74.20
46123;DHT22;31856;-35.404;149.120;2023-02-26T18:26:43;17.50;74.30
46123;DHT22;31856;-35.404;149.120;2023-02-26T18:29:13;17.50;74.30
46123;DHT22;31856;-35.404;149.120;2023-02-26T18:31:42;17.50;74.10
46123;DHT22;31856;-35.404;149.120;2023-02-26T18:34:12;17.50;74.40
46123;DHT22;31856;-35.404;149.120;2023-02-26T18:36:41;17.50;74.70
46123;DHT22;31856;-35.404;149.120;2023-02-26T18:39:11;17.50;74.40
46123;DHT22;31856;-35.404;149.120;2023-02-26T18:41:42;17.60;74.00
46123;DHT22;31856;-35.404;149.120;2023-02-26T18:44:12;17.60;73.90
46123;DHT22;31856;-35.404;149.120;2023-02-26T18:46:41;17.60;74.30
46123;DHT22;31856;-35.404;149.120;2023-02-26T18:49:17;17.50;74.40
46123;DHT22;31856;-35.404;149.120;2023-02-26T18:51:46;17.60;74.30
46123;DHT22;31856;-35.404;149.120;2023-02-26T18:54:16;17.50;74.80
46123;DHT22;31856;-35.404;149.120;2023-02-26T18:56:46;17.50;74.80
46123;DHT22;31856;-35.404;149.120;2023-02-26T18:59:15;17.50;75.10
46123;DHT22;31856;-35.404;149.120;2023-02-26T19:01:45;17.40;75.20
46123;DHT22;31856;-35.404;149.120;2023-02-26T19:04:15;17.50;75.20
46123;DHT22;31856;-35.404;149.120;2023-02-26T19:06:45;17.50;75.20
46123;DHT22;31856;-35.404;149.120;2023-02-26T19:09:16;17.50;75.30
46123;DHT22;31856;-35.404;149.120;2023-02-26T19:11:46;17.50;75.10
46123;DHT22;31856;-35.404;149.120;2023-02-26T19:14:15;17.50;75.10
46123;DHT22;31856;-35.404;149.120;2023-02-26T19:16:45;17.60;75.30
46123;DHT22;31856;-35.404;149.120;2023-02-26T19:19:14;17.60;75.20
46123;DHT22;31856;-35.404;149.120;2023-02-26T19:21:44;17.60;75.00
46123;DHT22;31856;-35.404;149.120;2023-02-26T19:24:13;17.70;74.50
46123;DHT22;31856;-35.404;149.120;2023-02-26T20:17:31;17.70;75.50
46123;DHT22;31856;-35.404;149.120;2023-02-26T20:20:01;17.70;75.80
46123;DHT22;31856;-35.404;149.120;2023-02-26T20:22:31;17.80;75.80
46123;DHT22;31856;-35.404;149.120;2023-02-26T20:25:00;17.80;75.60
46123;DHT22;31856;-35.404;149.120;2023-02-26T20:27:30;17.80;75.70
46123;DHT22;31856;-35.404;149.120;2023-02-26T20:30:01;17.80;75.70
46123;DHT22;31856;-35.404;149.120;2023-02-26T20:32:31;17.80;75.50
46123;DHT22;31856;-35.404;149.120;2023-02-26T20:35:01;17.90;75.50
46123;DHT22;31856;-35.404;149.120;2023-02-26T20:37:31;17.90;75.20
46123;DHT22;31856;-35.404;149.120;2023-02-26T20:40:00;18.00;74.90
46123;DHT22;31856;-35.404;149.120;2023-02-26T20:42:30;18.00;74.70
46123;DHT22;31856;-35.404;149.120;2023-02-26T20:45:02;18.00;74.90
46123;DHT22;31856;-35.404;149.120;2023-02-26T20:47:32;18.00;74.90
46123;DHT22;31856;-35.404;149.120;2023-02-26T20:50:02;18.00;74.70
46123;DHT22;31856;-35.404;149.120;2023-02-26T20:52:31;18.00;74.50
46123;DHT22;31856;-35.404;149.120;2023-02-26T20:55:01;18.00;74.60
46123;DHT22;31856;-35.404;149.120;2023-02-26T20:57:30;18.00;74.70
46123;DHT22;31856;-35.404;149.120;2023-02-26T21:00:01;18.00;74.80
46123;DHT22;31856;-35.404;149.120;2023-02-26T21:02:38;18.10;74.80
46123;DHT22;31856;-35.404;149.120;2023-02-26T21:05:08;18.10;74.50
46123;DHT22;31856;-35.404;149.120;2023-02-26T21:07:37;18.20;74.90
46123;DHT22;31856;-35.404;149.120;2023-02-26T21:10:09;18.30;74.60
46123;DHT22;31856;-35.404;149.120;2023-02-26T21:12:40;18.30;74.30
46123;DHT22;31856;-35.404;149.120;2023-02-26T21:15:11;18.20;74.30
46123;DHT22;31856;-35.404;149.120;2023-02-26T21:53:20;19.40;71.40
46123;DHT22;31856;-35.404;149.120;2023-02-26T21:55:50;19.70;71.20
46123;DHT22;31856;-35.404;149.120;2023-02-26T21:58:19;19.90;70.80
46123;DHT22;31856;-35.404;149.120;2023-02-26T22:00:49;20.00;70.50
46123;DHT22;31856;-35.404;149.120;2023-02-26T22:03:18;20.10;69.80
46123;DHT22;31856;-35.404;149.120;2023-02-26T22:05:51;20.20;69.50
46123;DHT22;31856;-35.404;149.120;2023-02-26T22:08:21;20.30;69.20
46123;DHT22;31856;-35.404;149.120;2023-02-26T22:10:50;20.50;68.80
46123;DHT22;31856;-35.404;149.120;2023-02-26T22:13:19;20.80;68.30
46123;DHT22;31856;-35.404;149.120;2023-02-26T22:15:49;21.00;67.90
46123;DHT22;31856;-35.404;149.120;2023-02-26T22:18:18;21.00;67.00
46123;DHT22;31856;-35.404;149.120;2023-02-26T22:20:48;21.00;66.80
46123;DHT22;31856;-35.404;149.120;2023-02-26T22:23:18;21.00;66.60
46123;DHT22;31856;-35.404;149.120;2023-02-26T22:25:47;20.90;66.70
46123;DHT22;31856;-35.404;149.120;2023-02-26T22:28:17;20.90;66.60
46123;DHT22;31856;-35.404;149.120;2023-02-26T22:30:47;20.80;66.80
46123;DHT22;31856;-35.404;149.120;2023-02-26T22:33:18;20.60;67.40
46123;DHT22;31856;-35.404;149.120;2023-02-26T22:35:48;20.60;67.70
46123;DHT22;31856;-35.404;149.120;2023-02-26T22:38:17;20.50;67.60
46123;DHT22;31856;-35.404;149.120;2023-02-26T22:40:47;20.40;67.90
46123;DHT22;31856;-35.404;149.120;2023-02-26T22:43:18;20.50;68.10
46123;DHT22;31856;-35.404;149.120;2023-02-26T22:45:49;20.50;68.40
46123;DHT22;31856;-35.404;149.120;2023-02-26T22:48:18;20.50;68.00
